sensor_id;sensor_type;location;lat;lon;timestamp;temperature;humidity
15298;DHT22;7750;48.796;9.026;2023-03-12T00:02:38;4.20;57.30
15298;DHT22;7750;48.796;9.026;2023-03-12T00:07:38;4.10;57.30
15298;DHT22;7750;48.796;9.026;2023-03-12T00:12:39;4.10;57.40
15298;DHT22;7750;48.796;9.026;2023-03-12T00:17:40;4.00;57.40
15298;DHT22;7750;48.796;9.026;2023-03-12T00:22:40;4.00;57.50
15298;DHT22;7750;48.796;9.026;2023-03-12T00:27:42;3.90;57.60
15298;DHT22;7750;48.796;9.026;2023-03-12T00:32:42;3.90;57.70
15298;DHT22;7750;48.796;9.026;2023-03-12T00:37:43;3.80;57.70
15298;DHT22;7750;48.796;9.026;2023-03-12T00:42:44;3.80;57.80
15298;DHT22;7750;48.796;9.026;2023-03-12T00:47:44;3.70;57.80
15298;DHT22;7750;48.796;9.026;2023-03-12T00:52:45;3.70;57.90
15298;DHT22;7750;48.796;9.026;2023-03-12T00:57:46;3.70;58.10
15298;DHT22;7750;48.796;9.026;2023-03-12T01:02:46;3.60;58.20
15298;DHT22;7750;48.796;9.026;2023-03-12T01:07:47;3.60;58.30
15298;DHT22;7750;48.796;9.026;2023-03-12T01:12:48;3.60;58.40
15298;DHT22;7750;48.796;9.026;2023-03-12T01:17:48;3.60;58.50
15298;DHT22;7750;48.796;9.026;2023-03-12T01:22:49;3.60;58.60
15298;DHT22;7750;48.796;9.026;2023-03-12T01:27:50;3.60;58.70
15298;DHT22;7750;48.796;9.026;2023-03-12T01:32:52;3.60;59.00
15298;DHT22;7750;48.796;9.026;2023-03-12T01:37:52;3.60;58.90
15298;DHT22;7750;48.796;9.026;2023-03-12T01:42:56;3.60;59.00
15298;DHT22;7750;48.796;9.026;2023-03-12T01:47:57;3.60;59.10
15298;DHT22;7750;48.796;9.026;2023-03-12T01:52:57;3.60;59.10
15298;DHT22;7750;48.796;9.026;2023-03-12T01:58:00;3.60;59.60
15298;DHT22;7750;48.796;9.026;2023-03-12T02:03:06;3.70;59.20
15298;DHT22;7750;48.796;9.026;2023-03-12T02:08:12;3.70;59.50
15298;DHT22;7750;48.796;9.026;2023-03-12T02:13:14;3.70;59.50
15298;DHT22;7750;48.796;9.026;2023-03-12T02:18:17;3.70;59.50
15298;DHT22;7750;48.796;9.026;2023-03-12T02:28:33;3.80;59.80
15298;DHT22;7750;48.796;9.026;2023-03-12T02:33:35;3.80;59.80
15298;DHT22;7750;48.796;9.026;2023-03-12T02:43:45;3.80;60.00
15298;DHT22;7750;48.796;9.026;2023-03-12T02:48:46;3.90;60.10
15298;DHT22;7750;48.796;9.026;2023-03-12T02:53:47;3.90;60.10
15298;DHT22;7750;48.796;9.026;2023-03-12T02:58:53;3.90;60.10
15298;DHT22;7750;48.796;9.026;2023-03-12T03:03:54;4.00;60.20
15298;DHT22;7750;48.796;9.026;2023-03-12T03:08:55;4.00;60.20
15298;DHT22;7750;48.796;9.026;2023-03-12T03:13:55;4.00;60.90
15298;DHT22;7750;48.796;9.026;2023-03-12T03:18:56;4.00;60.20
15298;DHT22;7750;48.796;9.026;2023-03-12T03:23:57;4.10;60.40
15298;DHT22;7750;48.796;9.026;2023-03-12T03:28:57;4.10;60.50
15298;DHT22;7750;48.796;9.026;2023-03-12T03:33:58;4.20;60.70
15298;DHT22;7750;48.796;9.026;2023-03-12T03:38:58;4.20;60.90
15298;DHT22;7750;48.796;9.026;2023-03-12T03:43:59;4.30;60.80
15298;DHT22;7750;48.796;9.026;2023-03-12T03:49:00;4.30;60.90
15298;DHT22;7750;48.796;9.026;2023-03-12T03:54:01;4.40;61.00
15298;DHT22;7750;48.796;9.026;2023-03-12T03:59:02;4.40;60.80
15298;DHT22;7750;48.796;9.026;2023-03-12T04:04:03;4.50;60.90
15298;DHT22;7750;48.796;9.026;2023-03-12T04:09:04;4.50;60.70
15298;DHT22;7750;48.796;9.026;2023-03-12T04:14:05;4.60;60.60
15298;DHT22;7750;48.796;9.026;2023-03-12T04:19:05;4.70;60.90
15298;DHT22;7750;48.796;9.026;2023-03-12T04:24:07;4.70;61.00
15298;DHT22;7750;48.796;9.026;2023-03-12T04:29:13;4.80;61.10
15298;DHT22;7750;48.796;9.026;2023-03-12T04:34:14;4.90;61.00
15298;DHT22;7750;48.796;9.026;2023-03-12T04:39:18;5.00;61.10
15298;DHT22;7750;48.796;9.026;2023-03-12T04:44:19;5.10;61.30
15298;DHT22;7750;48.796;9.026;2023-03-12T04:49:20;5.10;61.40
15298;DHT22;7750;48.796;9.026;2023-03-12T04:54:21;5.10;61.60
15298;DHT22;7750;48.796;9.026;2023-03-12T04:59:22;5.20;62.50
15298;DHT22;7750;48.796;9.026;2023-03-12T05:04:22;5.30;62.30
15298;DHT22;7750;48.796;9.026;2023-03-12T05:09:23;5.40;62.50
15298;DHT22;7750;48.796;9.026;2023-03-12T05:14:23;5.40;63.10
15298;DHT22;7750;48.796;9.026;2023-03-12T05:19:24;5.50;63.00
15298;DHT22;7750;48.796;9.026;2023-03-12T05:24:25;5.50;63.10
15298;DHT22;7750;48.796;9.026;2023-03-12T05:29:26;5.60;63.20
15298;DHT22;7750;48.796;9.026;2023-03-12T05:34:29;5.70;63.30
15298;DHT22;7750;48.796;9.026;2023-03-12T05:39:30;5.80;63.60
15298;DHT22;7750;48.796;9.026;2023-03-12T05:44:31;5.80;63.60
15298;DHT22;7750;48.796;9.026;2023-03-12T05:49:34;5.90;63.70
15298;DHT22;7750;48.796;9.026;2023-03-12T05:54:34;5.90;63.60
15298;DHT22;7750;48.796;9.026;2023-03-12T05:59:35;6.00;63.80
15298;DHT22;7750;48.796;9.026;2023-03-12T06:04:36;6.00;63.90
15298;DHT22;7750;48.796;9.026;2023-03-12T06:09:36;6.00;63.90
15298;DHT22;7750;48.796;9.026;2023-03-12T06:14:37;6.10;64.00
15298;DHT22;7750;48.796;9.026;2023-03-12T06:24:39;6.10;63.90
15298;DHT22;7750;48.796;9.026;2023-03-12T06:29:42;6.20;64.70
15298;DHT22;7750;48.796;9.026;2023-03-12T06:34:43;6.30;64.70
15298;DHT22;7750;48.796;9.026;2023-03-12T06:39:43;6.30;64.90
15298;DHT22;7750;48.796;9.026;2023-03-12T06:44:44;6.40;65.10
15298;DHT22;7750;48.796;9.026;2023-03-12T06:49:44;6.40;65.30
15298;DHT22;7750;48.796;9.026;2023-03-12T06:54:45;6.50;65.50
15298;DHT22;7750;48.796;9.026;2023-03-12T06:59:46;6.60;65.90
15298;DHT22;7750;48.796;9.026;2023-03-12T07:04:46;6.70;66.00
15298;DHT22;7750;48.796;9.026;2023-03-12T07:09:47;6.70;66.30
15298;DHT22;7750;48.796;9.026;2023-03-12T07:14:47;6.70;66.60
15298;DHT22;7750;48.796;9.026;2023-03-12T07:19:48;6.70;66.40
15298;DHT22;7750;48.796;9.026;2023-03-12T07:24:49;6.80;67.00
15298;DHT22;7750;48.796;9.026;2023-03-12T07:29:50;6.80;67.10
15298;DHT22;7750;48.796;9.026;2023-03-12T07:34:54;6.80;67.10
15298;DHT22;7750;48.796;9.026;2023-03-12T07:39:55;6.90;67.50
15298;DHT22;7750;48.796;9.026;2023-03-12T07:44:55;7.00;68.20
15298;DHT22;7750;48.796;9.026;2023-03-12T07:49:56;7.00;68.30
15298;DHT22;7750;48.796;9.026;2023-03-12T07:54:57;7.10;69.30
15298;DHT22;7750;48.796;9.026;2023-03-12T07:59:57;7.20;69.70
15298;DHT22;7750;48.796;9.026;2023-03-12T08:04:58;7.30;69.20
15298;DHT22;7750;48.796;9.026;2023-03-12T08:10:00;7.40;69.40
15298;DHT22;7750;48.796;9.026;2023-03-12T08:15:01;7.50;69.70
15298;DHT22;7750;48.796;9.026;2023-03-12T08:20:01;7.60;70.50
15298;DHT22;7750;48.796;9.026;2023-03-12T08:25:02;7.60;71.20
15298;DHT22;7750;48.796;9.026;2023-03-12T08:30:05;7.70;72.90
15298;DHT22;7750;48.796;9.026;2023-03-12T08:35:06;7.80;72.30
15298;DHT22;7750;48.796;9.026;2023-03-12T08:40:07;7.90;73.40
15298;DHT22;7750;48.796;9.026;2023-03-12T08:45:13;7.90;74.20
15298;DHT22;7750;48.796;9.026;2023-03-12T08:50:15;8.00;73.80
15298;DHT22;7750;48.796;9.026;2023-03-12T08:55:16;8.10;74.70
15298;DHT22;7750;48.796;9.026;2023-03-12T09:00:17;8.20;74.60
15298;DHT22;7750;48.796;9.026;2023-03-12T09:05:18;8.20;75.90
15298;DHT22;7750;48.796;9.026;2023-03-12T09:10:19;8.30;75.20
15298;DHT22;7750;48.796;9.026;2023-03-12T09:15:20;8.40;75.00
15298;DHT22;7750;48.796;9.026;2023-03-12T09:20:22;8.40;75.70
15298;DHT22;7750;48.796;9.026;2023-03-12T09:25:23;8.50;76.40
15298;DHT22;7750;48.796;9.026;2023-03-12T09:30:24;8.60;77.10
15298;DHT22;7750;48.796;9.026;2023-03-12T09:35:26;8.70;77.80
15298;DHT22;7750;48.796;9.026;2023-03-12T09:40:30;8.80;79.30
15298;DHT22;7750;48.796;9.026;2023-03-12T09:45:41;8.90;79.00
15298;DHT22;7750;48.796;9.026;2023-03-12T09:50:46;9.10;79.00
15298;DHT22;7750;48.796;9.026;2023-03-12T09:55:49;9.20;79.60
15298;DHT22;7750;48.796;9.026;2023-03-12T10:06:22;9.50;79.50
15298;DHT22;7750;48.796;9.026;2023-03-12T10:11:37;9.60;80.00
15298;DHT22;7750;48.796;9.026;2023-03-12T10:27:42;10.20;81.70
15298;DHT22;7750;48.796;9.026;2023-03-12T10:32:55;10.30;81.20
15298;DHT22;7750;48.796;9.026;2023-03-12T10:37:58;10.40;82.00
15298;DHT22;7750;48.796;9.026;2023-03-12T10:43:00;10.50;81.60
15298;DHT22;7750;48.796;9.026;2023-03-12T10:48:06;10.60;82.90
15298;DHT22;7750;48.796;9.026;2023-03-12T10:53:27;10.70;82.50
15298;DHT22;7750;48.796;9.026;2023-03-12T10:58:46;10.80;83.50
15298;DHT22;7750;48.796;9.026;2023-03-12T11:03:48;10.80;83.70
15298;DHT22;7750;48.796;9.026;2023-03-12T11:19:32;11.10;83.80
15298;DHT22;7750;48.796;9.026;2023-03-12T11:24:33;11.30;84.50
15298;DHT22;7750;48.796;9.026;2023-03-12T11:29:38;11.40;83.40
15298;DHT22;7750;48.796;9.026;2023-03-12T11:34:43;11.60;83.80
15298;DHT22;7750;48.796;9.026;2023-03-12T11:40:33;11.70;82.90
15298;DHT22;7750;48.796;9.026;2023-03-12T11:51:52;11.90;83.10
15298;DHT22;7750;48.796;9.026;2023-03-12T11:56:58;12.00;82.90
15298;DHT22;7750;48.796;9.026;2023-03-12T12:17:58;12.30;81.10
15298;DHT22;7750;48.796;9.026;2023-03-12T12:39:14;12.90;79.90
15298;DHT22;7750;48.796;9.026;2023-03-12T12:44:21;13.00;78.90
15298;DHT22;7750;48.796;9.026;2023-03-12T12:54:54;13.10;78.40
15298;DHT22;7750;48.796;9.026;2023-03-12T13:00:11;13.20;77.80
15298;DHT22;7750;48.796;9.026;2023-03-12T13:05:43;13.20;77.50
15298;DHT22;7750;48.796;9.026;2023-03-12T13:10:48;13.30;78.20
15298;DHT22;7750;48.796;9.026;2023-03-12T13:15:48;13.20;78.00
15298;DHT22;7750;48.796;9.026;2023-03-12T13:36:28;13.70;74.70
15298;DHT22;7750;48.796;9.026;2023-03-12T13:41:35;13.70;74.60
15298;DHT22;7750;48.796;9.026;2023-03-12T13:46:39;13.80;74.40
15298;DHT22;7750;48.796;9.026;2023-03-12T13:52:00;13.80;74.50
15298;DHT22;7750;48.796;9.026;2023-03-12T13:57:08;13.90;74.20
15298;DHT22;7750;48.796;9.026;2023-03-12T14:02:42;13.90;73.40
15298;DHT22;7750;48.796;9.026;2023-03-12T14:08:04;14.00;73.10
15298;DHT22;7750;48.796;9.026;2023-03-12T14:18:22;14.00;73.40
15298;DHT22;7750;48.796;9.026;2023-03-12T14:23:43;14.00;73.90
15298;DHT22;7750;48.796;9.026;2023-03-12T14:29:04;13.90;74.50
15298;DHT22;7750;48.796;9.026;2023-03-12T14:34:20;13.90;74.70
15298;DHT22;7750;48.796;9.026;2023-03-12T14:39:38;14.00;74.30
15298;DHT22;7750;48.796;9.026;2023-03-12T14:44:53;14.10;74.20
15298;DHT22;7750;48.796;9.026;2023-03-12T14:49:56;14.20;72.30
15298;DHT22;7750;48.796;9.026;2023-03-12T14:55:07;14.30;72.60
15298;DHT22;7750;48.796;9.026;2023-03-12T15:00:29;14.50;71.90
15298;DHT22;7750;48.796;9.026;2023-03-12T15:05:30;14.70;69.50
15298;DHT22;7750;48.796;9.026;2023-03-12T15:10:33;14.80;68.20
15298;DHT22;7750;48.796;9.026;2023-03-12T15:15:40;15.00;67.50
15298;DHT22;7750;48.796;9.026;2023-03-12T15:20:42;15.10;67.20
15298;DHT22;7750;48.796;9.026;2023-03-12T15:25:42;15.10;67.40
15298;DHT22;7750;48.796;9.026;2023-03-12T15:30:44;15.20;66.50
15298;DHT22;7750;48.796;9.026;2023-03-12T15:36:22;15.20;65.90
15298;DHT22;7750;48.796;9.026;2023-03-12T15:41:41;15.10;64.70
15298;DHT22;7750;48.796;9.026;2023-03-12T15:47:08;15.00;64.40
15298;DHT22;7750;48.796;9.026;2023-03-12T15:57:23;14.80;65.20
15298;DHT22;7750;48.796;9.026;2023-03-12T16:02:35;14.70;65.70
15298;DHT22;7750;48.796;9.026;2023-03-12T16:07:36;14.70;65.40
15298;DHT22;7750;48.796;9.026;2023-03-12T16:12:37;14.60;65.70
15298;DHT22;7750;48.796;9.026;2023-03-12T16:17:38;14.60;65.90
15298;DHT22;7750;48.796;9.026;2023-03-12T16:22:38;14.50;65.70
15298;DHT22;7750;48.796;9.026;2023-03-12T16:27:51;14.50;65.70
15298;DHT22;7750;48.796;9.026;2023-03-12T16:32:52;14.50;64.50
15298;DHT22;7750;48.796;9.026;2023-03-12T16:37:53;14.50;64.60
15298;DHT22;7750;48.796;9.026;2023-03-12T16:42:54;14.40;64.70
15298;DHT22;7750;48.796;9.026;2023-03-12T16:48:00;14.30;64.50
15298;DHT22;7750;48.796;9.026;2023-03-12T16:53:02;14.40;64.60
15298;DHT22;7750;48.796;9.026;2023-03-12T16:58:03;14.30;64.50
15298;DHT22;7750;48.796;9.026;2023-03-12T17:03:06;14.30;64.30
15298;DHT22;7750;48.796;9.026;2023-03-12T17:08:07;14.30;64.20
15298;DHT22;7750;48.796;9.026;2023-03-12T17:13:16;14.20;64.20
15298;DHT22;7750;48.796;9.026;2023-03-12T17:18:19;14.20;63.60
15298;DHT22;7750;48.796;9.026;2023-03-12T17:23:19;14.10;64.00
15298;DHT22;7750;48.796;9.026;2023-03-12T17:28:23;14.10;63.90
15298;DHT22;7750;48.796;9.026;2023-03-12T17:33:24;14.10;63.90
15298;DHT22;7750;48.796;9.026;2023-03-12T17:38:25;14.00;64.70
15298;DHT22;7750;48.796;9.026;2023-03-12T17:43:26;14.00;64.10
15298;DHT22;7750;48.796;9.026;2023-03-12T17:48:27;13.90;64.00
15298;DHT22;7750;48.796;9.026;2023-03-12T17:53:28;13.90;64.20
15298;DHT22;7750;48.796;9.026;2023-03-12T17:58:28;14.00;63.80
15298;DHT22;7750;48.796;9.026;2023-03-12T18:03:29;13.90;63.80
15298;DHT22;7750;48.796;9.026;2023-03-12T18:08:30;13.80;63.70
15298;DHT22;7750;48.796;9.026;2023-03-12T18:13:30;13.80;63.80
15298;DHT22;7750;48.796;9.026;2023-03-12T18:18:31;13.70;63.70
15298;DHT22;7750;48.796;9.026;2023-03-12T18:23:32;13.70;63.90
15298;DHT22;7750;48.796;9.026;2023-03-12T18:28:32;13.70;64.00
15298;DHT22;7750;48.796;9.026;2023-03-12T18:33:33;13.70;64.00
15298;DHT22;7750;48.796;9.026;2023-03-12T18:38:35;13.60;63.80
15298;DHT22;7750;48.796;9.026;2023-03-12T18:43:36;13.60;63.90
15298;DHT22;7750;48.796;9.026;2023-03-12T18:48:37;13.60;64.10
15298;DHT22;7750;48.796;9.026;2023-03-12T18:53:38;13.60;63.90
15298;DHT22;7750;48.796;9.026;2023-03-12T18:58:38;13.60;63.90
15298;DHT22;7750;48.796;9.026;2023-03-12T19:03:39;13.60;63.90
15298;DHT22;7750;48.796;9.026;2023-03-12T19:08:40;13.60;63.70
15298;DHT22;7750;48.796;9.026;2023-03-12T19:13:42;13.60;63.50
15298;DHT22;7750;48.796;9.026;2023-03-12T19:18:42;13.60;64.20
15298;DHT22;7750;48.796;9.026;2023-03-12T19:23:43;13.60;63.70
15298;DHT22;7750;48.796;9.026;2023-03-12T19:28:44;13.50;63.50
15298;DHT22;7750;48.796;9.026;2023-03-12T19:33:44;13.50;63.40
15298;DHT22;7750;48.796;9.026;2023-03-12T19:38:45;13.50;63.70
15298;DHT22;7750;48.796;9.026;2023-03-12T19:43:46;13.40;63.60
15298;DHT22;7750;48.796;9.026;2023-03-12T19:48:46;13.40;63.40
15298;DHT22;7750;48.796;9.026;2023-03-12T19:53:47;13.40;63.60
15298;DHT22;7750;48.796;9.026;2023-03-12T19:58:48;13.30;63.70
15298;DHT22;7750;48.796;9.026;2023-03-12T20:03:48;13.30;63.70
15298;DHT22;7750;48.796;9.026;2023-03-12T20:08:49;13.20;63.80
15298;DHT22;7750;48.796;9.026;2023-03-12T20:13:50;13.20;63.80
15298;DHT22;7750;48.796;9.026;2023-03-12T20:18:50;13.20;64.00
15298;DHT22;7750;48.796;9.026;2023-03-12T20:23:53;13.20;64.00
15298;DHT22;7750;48.796;9.026;2023-03-12T20:28:54;13.10;64.10
15298;DHT22;7750;48.796;9.026;2023-03-12T20:33:54;13.10;64.10
15298;DHT22;7750;48.796;9.026;2023-03-12T20:38:55;13.10;64.20
15298;DHT22;7750;48.796;9.026;2023-03-12T20:43:56;13.10;64.20
15298;DHT22;7750;48.796;9.026;2023-03-12T20:48:57;13.10;64.30
15298;DHT22;7750;48.796;9.026;2023-03-12T20:53:57;13.10;65.00
15298;DHT22;7750;48.796;9.026;2023-03-12T20:58:58;13.10;64.90
15298;DHT22;7750;48.796;9.026;2023-03-12T21:03:58;13.10;64.40
15298;DHT22;7750;48.796;9.026;2023-03-12T21:08:59;13.10;64.40
15298;DHT22;7750;48.796;9.026;2023-03-12T21:14:00;13.10;64.50
15298;DHT22;7750;48.796;9.026;2023-03-12T21:19:01;13.10;64.50
15298;DHT22;7750;48.796;9.026;2023-03-12T21:24:01;13.10;64.50
15298;DHT22;7750;48.796;9.026;2023-03-12T21:29:03;13.10;64.40
15298;DHT22;7750;48.796;9.026;2023-03-12T21:34:04;13.10;64.50
15298;DHT22;7750;48.796;9.026;2023-03-12T21:39:04;13.10;64.50
15298;DHT22;7750;48.796;9.026;2023-03-12T21:44:05;13.10;64.40
15298;DHT22;7750;48.796;9.026;2023-03-12T21:49:06;13.10;65.30
15298;DHT22;7750;48.796;9.026;2023-03-12T21:54:06;13.00;64.50
15298;DHT22;7750;48.796;9.026;2023-03-12T21:59:07;13.00;64.60
15298;DHT22;7750;48.796;9.026;2023-03-12T22:04:08;13.00;64.70
15298;DHT22;7750;48.796;9.026;2023-03-12T22:09:08;13.00;65.10
15298;DHT22;7750;48.796;9.026;2023-03-12T22:14:09;12.90;65.10
15298;DHT22;7750;48.796;9.026;2023-03-12T22:19:10;12.90;65.60
15298;DHT22;7750;48.796;9.026;2023-03-12T22:24:12;12.90;65.70
15298;DHT22;7750;48.796;9.026;2023-03-12T22:29:12;12.90;65.90
15298;DHT22;7750;48.796;9.026;2023-03-12T22:34:13;12.90;66.00
15298;DHT22;7750;48.796;9.026;2023-03-12T22:39:15;12.80;66.10
15298;DHT22;7750;48.796;9.026;2023-03-12T22:44:16;12.80;66.40
15298;DHT22;7750;48.796;9.026;2023-03-12T22:49:17;12.80;66.90
15298;DHT22;7750;48.796;9.026;2023-03-12T22:54:18;12.80;66.30
15298;DHT22;7750;48.796;9.026;2023-03-12T22:59:18;12.80;66.30
15298;DHT22;7750;48.796;9.026;2023-03-12T23:04:19;12.80;66.40
15298;DHT22;7750;48.796;9.026;2023-03-12T23:09:20;12.80;66.40
15298;DHT22;7750;48.796;9.026;2023-03-12T23:14:20;12.80;66.40
15298;DHT22;7750;48.796;9.026;2023-03-12T23:19:21;12.80;66.40
15298;DHT22;7750;48.796;9.026;2023-03-12T23:24:21;12.80;66.30
15298;DHT22;7750;48.796;9.026;2023-03-12T23:29:22;12.70;66.10
15298;DHT22;7750;48.796;9.026;2023-03-12T23:34:23;12.60;65.90
15298;DHT22;7750;48.796;9.026;2023-03-12T23:39:23;12.60;66.60
15298;DHT22;7750;48.796;9.026;2023-03-12T23:44:24;12.50;66.00
15298;DHT22;7750;48.796;9.026;2023-03-12T23:49:24;12.40;66.00
15298;DHT22;7750;48.796;9.026;2023-03-12T23:54:25;12.30;66.10
15298;DHT22;7750;48.796;9.026;2023-03-12T23:59:26;12.30;66.30
